createdAt,value
2023-01-29T00:01:15.371Z,13.40
2023-01-29T00:03:48.664Z,12.63
2023-01-29T00:06:19.351Z,14.85
2023-01-29T00:08:50.126Z,14.18
2023-01-29T00:11:20.740Z,14.63
2023-01-29T00:13:51.822Z,13.02
2023-01-29T00:16:22.594Z,13.73
2023-01-29T00:18:55.883Z,13.38
2023-01-29T00:21:26.556Z,13.80
2023-01-29T00:23:58.425Z,10.43
2023-01-29T00:26:29.686Z,9.60
2023-01-29T00:29:00.808Z,9.90
2023-01-29T00:31:31.597Z,9.15
2023-01-29T00:34:04.889Z,11.52
2023-01-29T00:36:35.342Z,11.65
2023-01-29T00:39:11.951Z,10.48
2023-01-29T00:41:54.983Z,12.20
2023-01-29T00:44:37.934Z,12.30
2023-01-29T00:47:30.080Z,11.40
2023-01-29T00:50:03.851Z,8.52
2023-01-29T00:52:36.615Z,8.32
2023-01-29T00:55:08.729Z,8.43
2023-01-29T00:57:40.476Z,7.68
2023-01-29T01:00:15.467Z,8.13
2023-01-29T01:02:58.885Z,9.15
2023-01-29T01:05:32.896Z,11.27
2023-01-29T01:08:04.178Z,11.95
2023-01-29T01:10:34.126Z,10.57
2023-01-29T01:13:08.915Z,13.95
2023-01-29T01:15:41.555Z,10.18
2023-01-29T01:18:12.832Z,13.70
2023-01-29T01:20:46.084Z,13.48
2023-01-29T01:23:16.665Z,12.48
2023-01-29T01:25:47.251Z,14.10
2023-01-29T01:28:17.980Z,12.70
2023-01-29T01:30:48.611Z,13.02
2023-01-29T01:33:19.256Z,13.55
2023-01-29T01:35:52.490Z,11.90
2023-01-29T01:38:22.973Z,13.23
2023-01-29T01:40:54.155Z,12.27
2023-01-29T01:43:28.346Z,11.88
2023-01-29T01:45:59.768Z,10.50
2023-01-29T01:48:30.898Z,8.52
2023-01-29T01:51:08.831Z,7.95
2023-01-29T01:53:43.514Z,8.00
2023-01-29T01:56:18.748Z,7.30
2023-01-29T01:58:55.337Z,6.63
2023-01-29T02:01:33.447Z,7.57
2023-01-29T02:04:22.041Z,6.80
2023-01-29T02:07:09.650Z,8.23
2023-01-29T02:09:47.446Z,12.52
2023-01-29T02:12:20.703Z,11.18
2023-01-29T02:14:55.537Z,10.30
2023-01-29T02:17:26.732Z,7.67
2023-01-29T02:20:07.541Z,8.43
2023-01-29T02:23:17.512Z,7.93
2023-01-29T02:26:28.065Z,8.05
2023-01-29T02:29:22.740Z,7.45
2023-01-29T02:32:06.673Z,7.85
2023-01-29T02:34:57.753Z,8.60
2023-01-29T02:37:36.371Z,7.38
2023-01-29T02:40:15.923Z,8.05
2023-01-29T02:42:54.657Z,8.27
2023-01-29T02:45:39.789Z,7.85
2023-01-29T02:48:13.949Z,10.05
2023-01-29T02:50:51.305Z,10.70
2023-01-29T02:53:31.641Z,10.88
2023-01-29T02:56:07.501Z,11.20
2023-01-29T02:58:45.897Z,12.60
2023-01-29T03:01:25.016Z,11.80
2023-01-29T03:04:00.595Z,10.68
2023-01-29T03:06:35.944Z,9.63
2023-01-29T03:09:10.995Z,10.38
2023-01-29T03:11:45.286Z,7.47
2023-01-29T03:14:19.925Z,8.45
2023-01-29T03:16:55.812Z,9.93
2023-01-29T03:19:34.699Z,7.38
2023-01-29T03:22:11.016Z,8.52
2023-01-29T03:24:58.064Z,8.38
2023-01-29T03:27:45.143Z,9.32
2023-01-29T03:30:31.815Z,7.68
2023-01-29T03:33:21.455Z,8.00
2023-01-29T03:35:56.899Z,9.52
2023-01-29T03:38:32.528Z,8.00
2023-01-29T03:41:12.215Z,7.88
2023-01-29T03:43:55.136Z,7.70
2023-01-29T03:46:33.974Z,8.13
2023-01-29T03:49:15.420Z,7.70
2023-01-29T03:51:56.658Z,7.18
2023-01-29T03:54:35.147Z,7.38
2023-01-29T03:57:15.663Z,7.07
2023-01-29T03:59:55.838Z,6.25
2023-01-29T04:02:52.925Z,6.88
2023-01-29T04:05:31.172Z,6.03
2023-01-29T04:08:17.774Z,6.40
2023-01-29T04:10:53.091Z,5.57
2023-01-29T04:13:24.471Z,4.65
2023-01-29T04:16:01.172Z,6.30
2023-01-29T04:18:57.808Z,6.32
2023-01-29T04:21:37.427Z,6.82
2023-01-29T04:24:09.577Z,6.73
2023-01-29T04:26:53.623Z,5.90
2023-01-29T04:29:38.242Z,5.60
2023-01-29T04:32:18.485Z,4.63
2023-01-29T04:35:03.548Z,5.95
2023-01-29T04:37:44.245Z,4.32
2023-01-29T04:40:23.097Z,4.80
2023-01-29T04:43:02.944Z,5.90
2023-01-29T04:45:44.898Z,5.97
2023-01-29T04:48:23.409Z,4.82
2023-01-29T04:51:01.475Z,5.50
2023-01-29T04:53:43.336Z,5.57
2023-01-29T04:56:22.349Z,6.53
2023-01-29T04:58:58.351Z,4.38
2023-01-29T05:01:33.433Z,4.40
2023-01-29T05:04:07.742Z,4.88
2023-01-29T05:06:40.554Z,5.75
2023-01-29T05:09:17.227Z,6.20
2023-01-29T05:11:50.686Z,6.45
2023-01-29T05:14:22.948Z,5.20
2023-01-29T05:16:57.175Z,5.10
2023-01-29T05:19:27.788Z,4.90
2023-01-29T05:21:59.458Z,5.07
2023-01-29T05:24:32.589Z,5.00
2023-01-29T05:27:15.729Z,4.97
2023-01-29T05:29:49.186Z,4.63
2023-01-29T05:32:20.252Z,5.03
2023-01-29T05:34:50.699Z,5.65
2023-01-29T05:37:21.328Z,5.78
2023-01-29T05:39:54.799Z,4.85
2023-01-29T05:42:25.838Z,3.95
2023-01-29T05:44:56.575Z,4.43
2023-01-29T05:47:27.271Z,5.30
2023-01-29T05:49:57.928Z,5.57
2023-01-29T05:52:28.714Z,5.65
2023-01-29T05:55:01.871Z,5.30
2023-01-29T05:57:33.988Z,5.47
2023-01-29T06:00:04.866Z,7.35
2023-01-29T06:02:43.208Z,6.93
2023-01-29T06:05:14.145Z,8.18
2023-01-29T06:07:45.632Z,6.10
2023-01-29T06:10:21.576Z,7.30
2023-01-29T06:15:22.749Z,9.18
2023-01-29T06:17:53.417Z,6.80
2023-01-29T06:20:24.321Z,6.15
2023-01-29T06:22:54.860Z,7.22
2023-01-29T06:25:28.119Z,5.70
2023-01-29T06:27:59.634Z,5.28
2023-01-29T06:30:32.145Z,6.05
2023-01-29T06:33:03.165Z,7.07
2023-01-29T06:35:33.969Z,7.03
2023-01-29T06:38:04.688Z,6.60
2023-01-29T06:40:38.056Z,6.38
2023-01-29T06:43:08.605Z,7.70
2023-01-29T06:45:39.345Z,9.63
2023-01-29T06:48:10.238Z,8.27
2023-01-29T06:50:40.821Z,9.52
2023-01-29T06:53:11.418Z,12.27
2023-01-29T06:55:44.710Z,9.85
2023-01-29T06:58:15.662Z,12.20
2023-01-29T07:00:46.336Z,12.45
2023-01-29T07:03:17.423Z,13.20
2023-01-29T07:05:54.028Z,12.95
2023-01-29T07:08:24.590Z,15.45
2023-01-29T07:11:02.140Z,16.27
2023-01-29T07:13:33.008Z,16.15
2023-01-29T07:16:04.583Z,16.33
2023-01-29T07:18:35.538Z,17.05
2023-01-29T07:21:08.463Z,18.95
2023-01-29T07:23:39.261Z,20.52
2023-01-29T07:26:14.288Z,18.00
2023-01-29T07:28:44.899Z,15.27
2023-01-29T07:31:17.260Z,12.70
2023-01-29T07:33:48.256Z,5.22
2023-01-29T07:36:19.048Z,4.85
2023-01-29T07:38:52.952Z,4.45
2023-01-29T07:41:26.039Z,5.50
2023-01-29T07:43:56.492Z,7.63
2023-01-29T07:46:27.102Z,8.30
2023-01-29T07:48:57.614Z,8.68
2023-01-29T07:51:28.366Z,7.88
2023-01-29T07:53:58.911Z,8.20
2023-01-29T07:56:32.143Z,8.10
2023-01-29T07:59:02.605Z,8.90
2023-01-29T08:01:33.287Z,8.40
2023-01-29T08:04:03.780Z,9.07
2023-01-29T08:06:34.386Z,9.55
2023-01-29T08:09:05.023Z,8.10
2023-01-29T08:11:38.231Z,8.70
2023-01-29T08:14:09.560Z,8.63
2023-01-29T08:16:40.170Z,10.45
2023-01-29T08:19:10.701Z,7.88
2023-01-29T08:21:41.375Z,9.30
2023-01-29T08:24:12.025Z,8.60
2023-01-29T08:26:45.366Z,10.15
2023-01-29T08:29:16.196Z,9.80
2023-01-29T08:31:46.938Z,10.65
2023-01-29T08:34:17.498Z,11.68
2023-01-29T08:36:48.144Z,10.05
2023-01-29T08:39:18.751Z,9.88
2023-01-29T08:41:51.925Z,10.88
2023-01-29T08:44:22.451Z,11.25
2023-01-29T08:46:53.637Z,12.18
2023-01-29T08:49:24.216Z,12.32
2023-01-29T08:51:55.124Z,12.48
2023-01-29T08:54:25.804Z,8.63
2023-01-29T08:56:59.492Z,8.45
2023-01-29T08:59:30.150Z,9.05
2023-01-29T09:02:00.810Z,9.02
2023-01-29T09:04:31.349Z,8.82
2023-01-29T09:07:01.916Z,8.20
2023-01-29T09:09:32.709Z,8.50
2023-01-29T09:12:06.046Z,11.02
2023-01-29T09:14:36.689Z,12.38
2023-01-29T09:17:07.313Z,13.35
2023-01-29T09:19:37.942Z,14.13
2023-01-29T09:22:10.350Z,12.90
2023-01-29T09:24:41.693Z,10.55
2023-01-29T09:27:15.199Z,9.35
2023-01-29T09:29:45.931Z,8.90
2023-01-29T09:32:23.221Z,10.80
2023-01-29T09:35:02.366Z,9.95
2023-01-29T09:37:33.308Z,11.55
2023-01-29T09:40:03.902Z,8.38
2023-01-29T09:42:45.506Z,7.82
2023-01-29T09:45:19.675Z,8.70
2023-01-29T09:47:50.584Z,12.05
2023-01-29T09:50:25.175Z,12.95
2023-01-29T09:53:02.009Z,12.30
2023-01-29T09:55:36.732Z,12.85
2023-01-29T09:58:17.358Z,10.82
2023-01-29T10:00:57.580Z,14.27
2023-01-29T10:03:44.127Z,14.57
2023-01-29T10:06:27.624Z,15.07
2023-01-29T10:09:14.459Z,15.30
2023-01-29T10:11:58.193Z,14.50
2023-01-29T10:14:41.088Z,14.75
2023-01-29T10:17:41.709Z,14.95
2023-01-29T10:20:45.241Z,13.63
2023-01-29T10:23:25.434Z,14.70
2023-01-29T10:25:57.106Z,17.42
2023-01-29T10:28:33.395Z,21.50
2023-01-29T10:31:11.488Z,24.33
2023-01-29T10:34:02.475Z,18.55
2023-01-29T10:36:39.525Z,18.90
2023-01-29T10:39:19.778Z,22.20
2023-01-29T10:42:07.895Z,24.83
2023-01-29T10:44:49.342Z,27.13
2023-01-29T10:47:49.846Z,24.30
2023-01-29T10:50:37.669Z,22.25
2023-01-29T10:53:34.627Z,21.08
2023-01-29T10:56:23.087Z,19.58
2023-01-29T10:58:58.190Z,22.88
2023-01-29T11:01:29.207Z,18.27
2023-01-29T11:04:05.330Z,17.05
2023-01-29T11:06:38.537Z,16.52
2023-01-29T11:09:14.624Z,15.20
2023-01-29T11:11:49.296Z,15.50
2023-01-29T11:14:25.148Z,19.30
2023-01-29T11:16:56.342Z,19.75
2023-01-29T11:19:41.819Z,20.88
2023-01-29T11:22:18.222Z,19.10
2023-01-29T11:24:49.332Z,16.20
2023-01-29T11:27:26.866Z,19.80
2023-01-29T11:29:57.596Z,27.77
2023-01-29T11:32:31.565Z,20.20
2023-01-29T11:35:22.886Z,20.50
2023-01-29T11:37:53.416Z,17.33
2023-01-29T11:40:41.387Z,21.67
2023-01-29T11:43:36.385Z,22.25
2023-01-29T11:46:10.127Z,22.90
2023-01-29T11:48:46.704Z,18.63
2023-01-29T11:51:30.189Z,19.40
2023-01-29T11:54:02.997Z,21.58
2023-01-29T11:56:38.939Z,19.33
2023-01-29T11:59:09.789Z,20.08
2023-01-29T12:01:42.537Z,19.05
2023-01-29T12:04:22.482Z,21.58
2023-01-29T12:06:57.626Z,19.95
2023-01-29T12:09:32.550Z,19.27
2023-01-29T12:12:21.441Z,22.83
2023-01-29T12:15:07.797Z,22.15
2023-01-29T12:17:41.347Z,23.58
2023-01-29T12:20:18.630Z,15.95
2023-01-29T12:23:01.432Z,17.15
2023-01-29T12:25:43.689Z,15.38
2023-01-29T12:28:26.401Z,14.43
2023-01-29T12:31:15.005Z,16.55
2023-01-29T12:33:53.518Z,19.23
2023-01-29T12:36:31.385Z,14.52
2023-01-29T12:39:04.690Z,16.42
2023-01-29T12:41:45.811Z,18.92
2023-01-29T12:44:23.043Z,13.55
2023-01-29T12:46:57.119Z,14.98
2023-01-29T12:49:30.694Z,17.65
2023-01-29T12:52:06.000Z,21.17
2023-01-29T12:54:43.785Z,22.70
2023-01-29T12:57:24.365Z,19.67
2023-01-29T13:00:01.551Z,17.83
2023-01-29T13:02:40.196Z,24.48
2023-01-29T13:05:23.814Z,24.90
2023-01-29T13:08:00.583Z,21.45
2023-01-29T13:10:40.827Z,20.05
2023-01-29T13:13:19.640Z,21.63
2023-01-29T13:15:51.214Z,20.35
2023-01-29T13:18:40.950Z,22.98
2023-01-29T13:21:17.252Z,20.50
2023-01-29T13:23:50.264Z,23.25
2023-01-29T13:26:26.726Z,23.10
2023-01-29T13:28:57.759Z,23.15
2023-01-29T13:31:32.718Z,24.35
2023-01-29T13:34:11.327Z,40.45
2023-01-29T13:36:46.116Z,27.67
2023-01-29T13:39:26.647Z,17.75
2023-01-29T13:42:02.610Z,17.30
2023-01-29T13:44:36.611Z,16.60
2023-01-29T13:47:10.784Z,21.55
2023-01-29T13:49:44.878Z,23.98
2023-01-29T13:52:24.978Z,20.23
2023-01-29T13:55:00.689Z,20.70
2023-01-29T13:57:56.407Z,27.25
2023-01-29T14:01:01.479Z,20.02
2023-01-29T14:04:05.699Z,20.67
2023-01-29T14:06:51.694Z,26.95
2023-01-29T14:09:59.720Z,24.13
2023-01-29T14:12:51.220Z,23.50
2023-01-29T14:15:27.249Z,19.90
2023-01-29T14:18:05.908Z,17.08
2023-01-29T14:20:48.796Z,18.60
2023-01-29T14:23:30.673Z,19.98
2023-01-29T14:26:05.010Z,19.58
2023-01-29T14:28:38.686Z,15.00
2023-01-29T14:31:09.446Z,14.25
2023-01-29T14:33:43.607Z,21.08
2023-01-29T14:36:17.573Z,19.77
2023-01-29T14:38:53.450Z,15.63
2023-01-29T14:41:30.329Z,17.60
2023-01-29T14:44:30.736Z,18.67
2023-01-29T14:47:03.892Z,25.50
2023-01-29T14:49:53.269Z,17.75
2023-01-29T14:52:27.947Z,16.13
2023-01-29T14:55:04.168Z,14.37
2023-01-29T14:57:35.227Z,13.40
2023-01-29T15:00:09.847Z,12.10
2023-01-29T15:02:47.032Z,10.32
2023-01-29T15:05:22.690Z,13.73
2023-01-29T15:10:37.230Z,10.82
2023-01-29T15:13:17.528Z,13.00
2023-01-29T15:15:54.197Z,15.98
2023-01-29T15:18:34.643Z,16.40
2023-01-29T15:21:08.915Z,19.65
2023-01-29T15:23:40.969Z,19.45
2023-01-29T15:26:16.333Z,20.60
2023-01-29T15:28:51.840Z,20.08
2023-01-29T15:31:30.191Z,19.00
2023-01-29T15:34:09.823Z,20.95
2023-01-29T15:36:41.320Z,21.52
2023-01-29T15:39:31.903Z,21.27
2023-01-29T15:42:21.904Z,19.85
2023-01-29T15:44:52.939Z,15.93
2023-01-29T15:47:27.068Z,14.30
2023-01-29T15:50:00.902Z,15.63
2023-01-29T15:52:36.507Z,17.50
2023-01-29T15:57:41.022Z,19.63
2023-01-29T16:00:23.022Z,23.05
2023-01-29T16:02:53.795Z,24.00
2023-01-29T16:05:30.484Z,27.23
2023-01-29T16:08:02.815Z,25.38
2023-01-29T16:10:35.470Z,34.40
2023-01-29T16:13:06.890Z,30.17
2023-01-29T16:15:40.512Z,29.73
2023-01-29T16:18:24.500Z,31.08
2023-01-29T16:21:07.507Z,29.02
2023-01-29T16:23:44.217Z,30.80
2023-01-29T16:26:20.535Z,32.13
2023-01-29T16:28:51.707Z,35.03
2023-01-29T16:31:28.954Z,35.08
2023-01-29T16:34:01.352Z,46.03
2023-01-29T16:36:34.800Z,52.30
2023-01-29T16:39:09.051Z,39.10
2023-01-29T16:41:40.794Z,36.08
2023-01-29T16:44:36.260Z,38.65
2023-01-29T16:47:14.676Z,48.17
2023-01-29T16:49:52.778Z,46.35
2023-01-29T16:52:28.430Z,45.80
2023-01-29T16:55:18.726Z,43.80
2023-01-29T16:57:55.945Z,34.10
2023-01-29T17:00:28.957Z,26.25
2023-01-29T17:03:04.126Z,24.08
2023-01-29T17:05:37.855Z,24.30
2023-01-29T17:08:17.545Z,23.15
2023-01-29T17:10:51.641Z,22.50
2023-01-29T17:13:33.717Z,22.38
2023-01-29T17:16:06.391Z,22.08
2023-01-29T17:18:37.212Z,20.98
2023-01-29T17:21:08.500Z,23.52
2023-01-29T17:23:44.112Z,23.92
2023-01-29T17:26:18.095Z,28.40
2023-01-29T17:28:52.475Z,32.80
2023-01-29T17:31:24.349Z,29.17
2023-01-29T17:33:55.363Z,28.38
2023-01-29T17:36:26.662Z,29.60
2023-01-29T17:39:01.424Z,34.25
2023-01-29T17:41:34.140Z,34.53
2023-01-29T17:44:04.569Z,36.30
2023-01-29T17:46:35.143Z,40.05
2023-01-29T17:49:07.788Z,43.40
2023-01-29T17:51:38.620Z,45.30
2023-01-29T17:54:11.987Z,37.58
2023-01-29T17:56:42.764Z,39.38
2023-01-29T17:59:17.622Z,41.22
2023-01-29T18:01:48.696Z,34.70
2023-01-29T18:04:19.770Z,43.00
2023-01-29T18:06:52.307Z,39.67
2023-01-29T18:09:26.325Z,51.08
2023-01-29T18:11:57.380Z,54.22
2023-01-29T18:14:28.623Z,52.53
2023-01-29T18:16:59.492Z,45.38
2023-01-29T18:19:31.410Z,42.30
2023-01-29T18:22:02.587Z,42.65
2023-01-29T18:24:36.415Z,47.05
2023-01-29T18:27:07.462Z,45.22
2023-01-29T18:29:38.535Z,47.05
2023-01-29T18:32:10.403Z,50.47
2023-01-29T18:34:41.424Z,45.53
2023-01-29T18:37:13.148Z,48.33
2023-01-29T18:39:46.417Z,56.53
2023-01-29T18:42:17.851Z,65.15
2023-01-29T18:44:49.168Z,66.05
2023-01-29T18:47:20.155Z,78.05
2023-01-29T18:49:52.267Z,76.88
2023-01-29T18:52:23.019Z,72.07
2023-01-29T18:54:56.551Z,74.80
2023-01-29T18:58:27.076Z,70.45
2023-01-29T19:00:19.019Z,71.53
2023-01-29T19:02:51.019Z,64.55
2023-01-29T19:05:23.995Z,62.55
2023-01-29T19:07:55.396Z,60.30
2023-01-29T19:10:29.332Z,62.67
2023-01-29T19:13:00.099Z,61.75
2023-01-29T19:15:31.365Z,74.60
2023-01-29T19:18:02.902Z,65.78
2023-01-29T19:20:33.509Z,68.90
2023-01-29T19:23:04.397Z,69.03
2023-01-29T19:25:39.935Z,66.50
2023-01-29T19:28:10.773Z,65.25
2023-01-29T19:30:42.021Z,70.80
2023-01-29T19:33:14.022Z,66.65
2023-01-29T19:35:47.639Z,67.70
2023-01-29T19:38:21.611Z,64.38
2023-01-29T19:40:55.667Z,62.03
2023-01-29T19:43:26.651Z,67.10
2023-01-29T19:46:00.966Z,77.15
2023-01-29T19:48:31.956Z,73.30
2023-01-29T19:51:04.519Z,75.38
2023-01-29T19:53:36.004Z,72.97
2023-01-29T19:56:11.561Z,69.10
2023-01-29T19:58:43.269Z,71.90
2023-01-29T20:01:18.088Z,72.18
2023-01-29T20:03:49.542Z,79.78
2023-01-29T20:06:24.023Z,85.30
2023-01-29T20:08:55.428Z,90.80
2023-01-29T20:11:29.575Z,83.55
2023-01-29T20:14:01.987Z,90.05
2023-01-29T20:16:32.658Z,93.68
2023-01-29T20:19:13.427Z,94.20
2023-01-29T20:21:46.155Z,81.28
2023-01-29T20:24:17.179Z,73.57
2023-01-29T20:26:50.682Z,73.15
2023-01-29T20:29:21.564Z,79.65
2023-01-29T20:31:52.161Z,80.60
2023-01-29T20:34:23.046Z,64.93
2023-01-29T20:36:53.642Z,65.15
2023-01-29T20:39:24.433Z,64.68
2023-01-29T20:41:57.926Z,72.97
2023-01-29T20:44:29.735Z,63.63
2023-01-29T20:47:02.902Z,56.33
2023-01-29T20:49:34.338Z,56.92
2023-01-29T20:52:04.971Z,59.35
2023-01-29T20:54:35.699Z,53.25
2023-01-29T20:57:09.171Z,42.90
2023-01-29T20:59:39.705Z,39.85
2023-01-29T21:02:10.574Z,35.30
2023-01-29T21:04:43.049Z,26.05
2023-01-29T21:07:14.969Z,29.75
2023-01-29T21:09:46.450Z,25.88
2023-01-29T21:12:20.039Z,26.90
2023-01-29T21:14:50.782Z,25.02
2023-01-29T21:17:21.441Z,24.83
2023-01-29T21:19:52.279Z,23.27
2023-01-29T21:22:24.320Z,23.10
2023-01-29T21:24:55.213Z,19.80
2023-01-29T21:27:28.761Z,20.10
2023-01-29T21:29:59.706Z,20.88
2023-01-29T21:32:31.235Z,22.73
2023-01-29T21:35:02.232Z,23.13
2023-01-29T21:37:37.104Z,20.10
2023-01-29T21:40:09.773Z,19.95
2023-01-29T21:42:55.290Z,21.00
2023-01-29T21:45:25.988Z,18.88
2023-01-29T21:47:56.643Z,18.25
2023-01-29T21:50:27.870Z,17.92
2023-01-29T21:52:58.403Z,17.83
2023-01-29T21:55:29.045Z,20.13
2023-01-29T21:58:03.139Z,20.52
2023-01-29T22:00:33.952Z,19.63
2023-01-29T22:03:04.793Z,18.05
2023-01-29T22:05:41.658Z,17.25
2023-01-29T22:08:12.321Z,18.13
2023-01-29T22:10:43.122Z,18.02
2023-01-29T22:13:16.610Z,20.33
2023-01-29T22:15:47.379Z,16.75
2023-01-29T22:18:18.136Z,16.20
2023-01-29T22:20:48.933Z,18.77
2023-01-29T22:23:19.529Z,18.00
2023-01-29T22:25:50.820Z,15.40
2023-01-29T22:28:24.090Z,14.40
2023-01-29T22:30:54.758Z,14.98
2023-01-29T22:33:26.195Z,14.32
2023-01-29T22:35:57.285Z,13.13
2023-01-29T22:38:27.977Z,13.60
2023-01-29T22:41:00.172Z,11.77
2023-01-29T22:43:33.570Z,11.82
2023-01-29T22:46:04.053Z,12.80
2023-01-29T22:48:35.758Z,12.90
2023-01-29T22:51:14.176Z,13.25
2023-01-29T22:53:46.201Z,14.05
2023-01-29T22:56:16.729Z,14.10
2023-01-29T22:58:53.299Z,13.10
2023-01-29T23:01:25.661Z,13.18
2023-01-29T23:03:56.723Z,13.68
2023-01-29T23:06:27.731Z,14.63
2023-01-29T23:08:58.343Z,13.77
2023-01-29T23:11:29.077Z,14.45
2023-01-29T23:14:02.219Z,26.75
2023-01-29T23:16:32.840Z,13.60
2023-01-29T23:19:03.383Z,11.63
2023-01-29T23:21:34.336Z,13.25
2023-01-29T23:24:06.184Z,11.75
2023-01-29T23:26:49.403Z,11.98
2023-01-29T23:29:22.709Z,12.05
2023-01-29T23:31:55.513Z,13.35
2023-01-29T23:34:26.274Z,13.05
2023-01-29T23:36:57.084Z,12.80
2023-01-29T23:39:27.891Z,13.57
2023-01-29T23:41:58.763Z,12.50
2023-01-29T23:44:32.388Z,12.80
2023-01-29T23:47:03.059Z,11.98
2023-01-29T23:49:33.642Z,11.93
2023-01-29T23:52:04.306Z,11.13
2023-01-29T23:54:34.803Z,9.95
2023-01-29T23:57:05.335Z,10.02
2023-01-29T23:59:38.544Z,12.38
